createdAt,value
2017-10-06T00:00:59.326Z,1012.9
2017-10-06T00:02:00.744Z,1012.9
2017-10-06T00:03:02.162Z,1012.9
2017-10-06T00:04:03.578Z,1012.8
2017-10-06T00:05:04.993Z,1012.8
2017-10-06T00:06:06.413Z,1012.8
2017-10-06T00:07:07.831Z,1012.8
2017-10-06T00:08:09.248Z,1012.9
2017-10-06T00:09:10.693Z,1012.8
2017-10-06T00:10:12.085Z,1012.8
2017-10-06T00:11:13.503Z,1012.9
2017-10-06T00:12:14.920Z,1012.9
2017-10-06T00:13:16.337Z,1012.9
2017-10-06T00:14:17.753Z,1012.8
2017-10-06T00:15:19.170Z,1012.8
2017-10-06T00:16:20.588Z,1012.8
2017-10-06T00:17:22.005Z,1012.8
2017-10-06T00:18:23.419Z,1012.8
2017-10-06T00:19:24.837Z,1012.8
2017-10-06T00:20:26.254Z,1012.8
2017-10-06T00:21:27.670Z,1012.8
2017-10-06T00:22:29.084Z,1012.9
2017-10-06T00:23:30.500Z,1012.9
2017-10-06T00:24:31.917Z,1012.8
2017-10-06T00:25:33.336Z,1012.8
2017-10-06T00:26:34.754Z,1012.9
2017-10-06T00:27:36.172Z,1012.9
2017-10-06T00:28:37.589Z,1012.9
2017-10-06T00:29:39.005Z,1012.9
2017-10-06T00:30:40.422Z,1012.9
2017-10-06T00:31:41.838Z,1012.9
2017-10-06T00:32:43.255Z,1012.9
2017-10-06T00:33:44.674Z,1012.9
2017-10-06T00:34:46.093Z,1012.9
2017-10-06T00:35:47.504Z,1012.9
2017-10-06T00:36:48.924Z,1012.9
2017-10-06T00:37:50.342Z,1012.9
2017-10-06T00:38:51.758Z,1012.9
2017-10-06T00:39:53.175Z,1012.9
2017-10-06T00:40:54.591Z,1012.8
2017-10-06T00:41:56.007Z,1012.9
2017-10-06T00:42:57.426Z,1012.8
2017-10-06T00:43:58.847Z,1012.9
2017-10-06T00:45:00.263Z,1012.9
2017-10-06T00:46:01.679Z,1012.9
2017-10-06T00:47:03.094Z,1012.9
2017-10-06T00:48:04.662Z,1012.9
2017-10-06T00:49:06.089Z,1012.9
2017-10-06T00:50:07.500Z,1012.9
2017-10-06T00:51:08.918Z,1012.9
2017-10-06T00:52:10.337Z,1012.9
2017-10-06T00:53:11.752Z,1012.9
2017-10-06T00:54:13.169Z,1012.9
2017-10-06T00:55:14.590Z,1012.9
2017-10-06T00:56:16.002Z,1012.9
2017-10-06T00:57:17.420Z,1012.9
2017-10-06T00:58:18.837Z,1012.9
2017-10-06T00:59:20.252Z,1012.9
2017-10-06T01:00:21.676Z,1012.9
2017-10-06T01:01:23.090Z,1012.9
2017-10-06T01:02:24.510Z,1012.8
2017-10-06T01:03:25.925Z,1012.8
2017-10-06T01:04:27.346Z,1012.8
2017-10-06T01:05:28.763Z,1012.9
2017-10-06T01:06:30.181Z,1012.8
2017-10-06T01:07:31.597Z,1012.8
2017-10-06T01:08:33.013Z,1012.8
2017-10-06T01:09:34.429Z,1012.8
2017-10-06T01:10:35.849Z,1012.8
2017-10-06T01:11:37.266Z,1012.8
2017-10-06T01:12:38.690Z,1012.8
2017-10-06T01:13:40.108Z,1012.8
2017-10-06T01:14:41.525Z,1012.8
2017-10-06T01:15:42.943Z,1012.8
2017-10-06T01:16:44.364Z,1012.7
2017-10-06T01:17:45.781Z,1012.7
2017-10-06T01:18:47.200Z,1012.7
2017-10-06T01:19:48.616Z,1012.7
2017-10-06T01:20:50.032Z,1012.7
2017-10-06T01:21:51.448Z,1012.7
2017-10-06T01:22:52.863Z,1012.7
2017-10-06T01:23:54.282Z,1012.7
2017-10-06T01:24:55.699Z,1012.6
2017-10-06T01:25:57.117Z,1012.6
2017-10-06T01:26:58.533Z,1012.6
2017-10-06T01:27:59.956Z,1012.6
2017-10-06T01:29:01.366Z,1012.6
2017-10-06T01:30:02.781Z,1012.6
2017-10-06T01:31:04.201Z,1012.6
2017-10-06T01:32:05.619Z,1012.6
2017-10-06T01:33:07.036Z,1012.6
2017-10-06T01:34:08.456Z,1012.6
2017-10-06T01:35:09.872Z,1012.6
2017-10-06T01:36:11.288Z,1012.6
2017-10-06T01:37:12.703Z,1012.6
2017-10-06T01:38:14.117Z,1012.6
2017-10-06T01:39:15.538Z,1012.6
2017-10-06T01:40:16.957Z,1012.6
2017-10-06T01:41:18.371Z,1012.6
2017-10-06T01:42:19.788Z,1012.6
2017-10-06T01:43:21.205Z,1012.6
2017-10-06T01:44:22.617Z,1012.6
2017-10-06T01:45:24.039Z,1012.5
2017-10-06T01:46:25.451Z,1012.6
2017-10-06T01:47:26.870Z,1012.6
2017-10-06T01:48:28.285Z,1012.5
2017-10-06T01:49:29.703Z,1012.5
2017-10-06T01:50:31.121Z,1012.6
2017-10-06T01:51:32.541Z,1012.5
2017-10-06T01:52:33.956Z,1012.5
2017-10-06T01:53:35.375Z,1012.6
2017-10-06T01:54:36.791Z,1012.6
2017-10-06T01:55:38.215Z,1012.5
2017-10-06T01:56:39.643Z,1012.5
2017-10-06T01:57:41.047Z,1012.6
2017-10-06T01:58:42.462Z,1012.6
2017-10-06T01:59:43.882Z,1012.6
2017-10-06T02:00:45.301Z,1012.6
2017-10-06T02:01:46.712Z,1012.6
2017-10-06T02:02:48.128Z,1012.6
2017-10-06T02:03:49.545Z,1012.6
2017-10-06T02:04:50.966Z,1012.6
2017-10-06T02:05:52.376Z,1012.6
2017-10-06T02:06:53.798Z,1012.6
2017-10-06T02:07:55.214Z,1012.6
2017-10-06T02:08:56.632Z,1012.5
2017-10-06T02:09:58.048Z,1012.6
2017-10-06T02:10:59.462Z,1012.5
2017-10-06T02:12:00.880Z,1012.6
2017-10-06T02:13:02.297Z,1012.5
2017-10-06T02:14:03.716Z,1012.6
2017-10-06T02:15:05.132Z,1012.5
2017-10-06T02:16:06.546Z,1012.5
2017-10-06T02:17:07.966Z,1012.6
2017-10-06T02:18:09.383Z,1012.6
2017-10-06T02:19:10.796Z,1012.5
2017-10-06T02:20:12.214Z,1012.6
2017-10-06T02:21:13.630Z,1012.6
2017-10-06T02:22:15.044Z,1012.6
2017-10-06T02:23:16.465Z,1012.6
2017-10-06T02:24:17.888Z,1012.6
2017-10-06T02:25:19.302Z,1012.6
2017-10-06T02:26:20.720Z,1012.6
2017-10-06T02:27:22.134Z,1012.6
2017-10-06T02:28:23.551Z,1012.6
2017-10-06T02:29:24.968Z,1012.6
2017-10-06T02:30:26.385Z,1012.7
2017-10-06T02:31:27.801Z,1012.6
2017-10-06T02:32:29.218Z,1012.6
2017-10-06T02:33:30.635Z,1012.6
2017-10-06T02:34:32.051Z,1012.6
2017-10-06T02:35:33.466Z,1012.6
2017-10-06T02:36:34.882Z,1012.6
2017-10-06T02:37:36.300Z,1012.6
2017-10-06T02:38:37.715Z,1012.6
2017-10-06T02:39:39.135Z,1012.6
2017-10-06T02:40:40.551Z,1012.6
2017-10-06T02:41:41.969Z,1012.6
2017-10-06T02:42:43.385Z,1012.5
2017-10-06T02:43:44.803Z,1012.5
2017-10-06T02:44:46.218Z,1012.5
2017-10-06T02:45:47.636Z,1012.5
2017-10-06T02:46:49.050Z,1012.5
2017-10-06T02:47:50.469Z,1012.5
2017-10-06T02:48:51.885Z,1012.5
2017-10-06T02:49:53.308Z,1012.5
2017-10-06T02:50:54.720Z,1012.5
2017-10-06T02:51:56.138Z,1012.5
2017-10-06T02:52:57.556Z,1012.5
2017-10-06T02:53:58.977Z,1012.4
2017-10-06T02:55:00.395Z,1012.4
2017-10-06T02:56:01.812Z,1012.4
2017-10-06T02:57:03.230Z,1012.4
2017-10-06T02:58:04.721Z,1012.4
2017-10-06T02:59:06.148Z,1012.4
2017-10-06T03:00:07.563Z,1012.4
2017-10-06T03:01:08.989Z,1012.4
2017-10-06T03:02:10.407Z,1012.5
2017-10-06T03:03:11.820Z,1012.4
2017-10-06T03:04:13.237Z,1012.5
2017-10-06T03:05:14.653Z,1012.5
2017-10-06T03:06:16.068Z,1012.5
2017-10-06T03:07:17.485Z,1012.4
2017-10-06T03:08:18.900Z,1012.5
2017-10-06T03:09:20.320Z,1012.5
2017-10-06T03:10:21.738Z,1012.5
2017-10-06T03:11:23.155Z,1012.5
2017-10-06T03:12:24.574Z,1012.6
2017-10-06T03:13:25.990Z,1012.5
2017-10-06T03:14:27.407Z,1012.5
2017-10-06T03:15:28.820Z,1012.6
2017-10-06T03:16:30.237Z,1012.6
2017-10-06T03:17:31.653Z,1012.6
2017-10-06T03:18:33.077Z,1012.6
2017-10-06T03:19:34.487Z,1012.6
2017-10-06T03:20:35.903Z,1012.5
2017-10-06T03:21:37.319Z,1012.5
2017-10-06T03:22:38.736Z,1012.5
2017-10-06T03:23:40.150Z,1012.6
2017-10-06T03:24:41.567Z,1012.6
2017-10-06T03:25:42.989Z,1012.6
2017-10-06T03:26:44.408Z,1012.6
2017-10-06T03:27:45.827Z,1012.6
2017-10-06T03:28:47.240Z,1012.6
2017-10-06T03:29:48.656Z,1012.5
2017-10-06T03:30:50.077Z,1012.6
2017-10-06T03:31:51.489Z,1012.6
2017-10-06T03:32:52.907Z,1012.6
2017-10-06T03:33:54.327Z,1012.6
2017-10-06T03:34:55.742Z,1012.7
2017-10-06T03:35:57.160Z,1012.6
2017-10-06T03:36:58.575Z,1012.7
2017-10-06T03:37:59.991Z,1012.6
2017-10-06T03:39:01.406Z,1012.6
2017-10-06T03:40:02.822Z,1012.6
2017-10-06T03:41:04.242Z,1012.6
2017-10-06T03:42:05.658Z,1012.6
2017-10-06T03:43:07.075Z,1012.6
2017-10-06T03:44:08.494Z,1012.6
2017-10-06T03:45:09.910Z,1012.6
2017-10-06T03:46:11.326Z,1012.6
2017-10-06T03:47:12.743Z,1012.6
2017-10-06T03:48:14.159Z,1012.7
2017-10-06T03:49:15.572Z,1012.6
2017-10-06T03:50:16.989Z,1012.6
2017-10-06T03:51:18.411Z,1012.6
2017-10-06T03:52:19.824Z,1012.6
2017-10-06T03:53:21.238Z,1012.7
2017-10-06T03:54:22.654Z,1012.7
2017-10-06T03:55:24.070Z,1012.7
2017-10-06T03:56:25.486Z,1012.7
2017-10-06T03:57:26.900Z,1012.7
2017-10-06T03:58:28.319Z,1012.7
2017-10-06T03:59:29.733Z,1012.7
2017-10-06T04:00:31.149Z,1012.7
2017-10-06T04:01:32.572Z,1012.7
2017-10-06T04:02:33.984Z,1012.7
2017-10-06T04:03:35.401Z,1012.7
2017-10-06T04:04:36.822Z,1012.6
2017-10-06T04:05:38.237Z,1012.7
2017-10-06T04:06:39.649Z,1012.7
2017-10-06T04:07:41.066Z,1012.6
2017-10-06T04:08:42.481Z,1012.6
2017-10-06T04:09:43.897Z,1012.6
2017-10-06T04:10:45.316Z,1012.6
2017-10-06T04:11:46.733Z,1012.6
2017-10-06T04:14:08.158Z,1012.6
2017-10-06T04:15:09.579Z,1012.6
2017-10-06T04:16:10.997Z,1012.6
2017-10-06T04:17:12.419Z,1012.7
2017-10-06T04:18:13.836Z,1012.7
2017-10-06T04:19:15.251Z,1012.7
2017-10-06T04:20:16.660Z,1012.7
2017-10-06T04:21:18.089Z,1012.7
2017-10-06T04:22:19.504Z,1012.7
2017-10-06T04:23:20.923Z,1012.7
2017-10-06T04:24:22.340Z,1012.7
2017-10-06T04:25:23.757Z,1012.7
2017-10-06T04:26:25.177Z,1012.8
2017-10-06T04:27:26.595Z,1012.7
2017-10-06T04:28:28.015Z,1012.7
2017-10-06T04:29:29.431Z,1012.7
2017-10-06T04:30:30.850Z,1012.7
2017-10-06T04:31:32.267Z,1012.7
2017-10-06T04:32:33.685Z,1012.7
2017-10-06T04:33:35.102Z,1012.7
2017-10-06T04:34:36.520Z,1012.7
2017-10-06T04:35:37.938Z,1012.6
2017-10-06T04:36:39.354Z,1012.7
2017-10-06T04:37:40.774Z,1012.7
2017-10-06T04:38:42.192Z,1012.7
2017-10-06T04:39:43.613Z,1012.7
2017-10-06T04:40:45.030Z,1012.7
2017-10-06T04:41:46.445Z,1012.8
2017-10-06T04:42:47.868Z,1012.7
2017-10-06T04:43:49.285Z,1012.8
2017-10-06T04:44:50.699Z,1012.8
2017-10-06T04:45:52.116Z,1012.9
2017-10-06T04:46:53.534Z,1012.9
2017-10-06T04:47:54.950Z,1012.9
2017-10-06T04:48:56.364Z,1012.9
2017-10-06T04:49:57.781Z,1012.8
2017-10-06T04:50:59.195Z,1012.8
2017-10-06T04:52:00.616Z,1012.8
2017-10-06T04:53:02.034Z,1012.8
2017-10-06T04:54:03.451Z,1012.8
2017-10-06T04:55:04.868Z,1012.8
2017-10-06T04:56:06.282Z,1012.8
2017-10-06T04:57:07.698Z,1012.8
2017-10-06T04:58:09.121Z,1012.8
2017-10-06T04:59:10.532Z,1012.8
2017-10-06T05:00:11.950Z,1012.8
2017-10-06T05:01:13.373Z,1012.8
2017-10-06T05:02:14.790Z,1012.8
2017-10-06T05:03:16.204Z,1012.8
2017-10-06T05:04:17.621Z,1012.8
2017-10-06T05:05:19.037Z,1012.8
2017-10-06T05:06:20.454Z,1012.8
2017-10-06T05:07:21.871Z,1012.8
2017-10-06T05:08:23.295Z,1012.8
2017-10-06T05:09:24.725Z,1012.8
2017-10-06T05:10:26.128Z,1012.8
2017-10-06T05:11:27.544Z,1012.8
2017-10-06T05:12:28.960Z,1012.8
2017-10-06T05:13:30.376Z,1012.8
2017-10-06T05:14:31.792Z,1012.8
2017-10-06T05:15:33.205Z,1012.8
2017-10-06T05:16:34.624Z,1012.8
2017-10-06T05:17:36.040Z,1012.9
2017-10-06T05:18:37.456Z,1012.9
2017-10-06T05:19:38.884Z,1012.9
2017-10-06T05:20:40.302Z,1012.9
2017-10-06T05:21:41.720Z,1012.9
2017-10-06T05:22:43.135Z,1012.8
2017-10-06T05:23:44.549Z,1012.8
2017-10-06T05:24:45.963Z,1012.9
2017-10-06T05:25:47.380Z,1012.8
2017-10-06T05:26:48.800Z,1012.9
2017-10-06T05:27:50.217Z,1012.9
2017-10-06T05:28:51.632Z,1012.9
2017-10-06T05:29:53.049Z,1013.0
2017-10-06T05:30:54.464Z,1013.0
2017-10-06T05:31:55.880Z,1013.0
2017-10-06T05:32:57.295Z,1013.0
2017-10-06T05:33:58.713Z,1013.0
2017-10-06T05:35:00.133Z,1013.0
2017-10-06T05:36:01.549Z,1013.0
2017-10-06T05:37:02.967Z,1013.0
2017-10-06T05:38:04.406Z,1013.0
2017-10-06T05:39:05.821Z,1013.0
2017-10-06T05:40:07.236Z,1012.9
2017-10-06T05:41:08.652Z,1012.9
2017-10-06T05:42:10.066Z,1012.9
2017-10-06T05:43:11.479Z,1012.9
2017-10-06T05:44:12.899Z,1012.9
2017-10-06T05:45:14.316Z,1012.9
2017-10-06T05:46:15.737Z,1012.9
2017-10-06T05:47:17.154Z,1012.9
2017-10-06T05:48:18.569Z,1012.8
2017-10-06T05:49:19.985Z,1012.8
2017-10-06T05:50:21.402Z,1012.8
2017-10-06T05:51:22.816Z,1012.8
2017-10-06T05:52:24.236Z,1012.8
2017-10-06T05:53:25.650Z,1012.8
2017-10-06T05:54:27.067Z,1012.8
2017-10-06T05:55:28.482Z,1012.7
2017-10-06T05:56:29.897Z,1012.8
2017-10-06T05:57:31.317Z,1012.8
2017-10-06T05:58:32.737Z,1012.8
2017-10-06T05:59:34.172Z,1012.8
2017-10-06T06:00:35.590Z,1012.8
2017-10-06T06:01:37.008Z,1012.8
2017-10-06T06:02:38.422Z,1012.8
2017-10-06T06:03:39.840Z,1012.8
2017-10-06T06:04:41.268Z,1012.8
2017-10-06T06:05:42.683Z,1012.8
2017-10-06T06:06:44.101Z,1012.8
2017-10-06T06:07:45.522Z,1012.9
2017-10-06T06:08:46.937Z,1012.8
2017-10-06T06:09:48.354Z,1012.8
2017-10-06T06:10:49.770Z,1012.8
2017-10-06T06:11:51.187Z,1012.9
2017-10-06T06:12:52.603Z,1012.9
2017-10-06T06:13:54.022Z,1012.9
2017-10-06T06:14:55.440Z,1012.9
2017-10-06T06:15:56.859Z,1013.0
2017-10-06T06:16:58.272Z,1013.0
2017-10-06T06:17:59.693Z,1013.0
2017-10-06T06:19:01.112Z,1013.0
2017-10-06T06:20:02.532Z,1013.0
2017-10-06T06:21:03.954Z,1013.0
2017-10-06T06:22:05.366Z,1013.0
2017-10-06T06:23:06.788Z,1013.0
2017-10-06T06:24:08.201Z,1013.0
2017-10-06T06:25:09.618Z,1013.0
2017-10-06T06:26:11.034Z,1013.0
2017-10-06T06:27:12.451Z,1013.0
2017-10-06T06:28:13.868Z,1013.0
2017-10-06T06:29:15.286Z,1013.0
2017-10-06T06:30:16.705Z,1013.1
2017-10-06T06:31:18.124Z,1013.1
2017-10-06T06:32:19.543Z,1013.0
2017-10-06T06:33:20.959Z,1013.0
2017-10-06T06:34:22.378Z,1013.1
2017-10-06T06:35:23.793Z,1013.1
2017-10-06T06:36:25.211Z,1013.1
2017-10-06T06:37:26.629Z,1013.1
2017-10-06T06:38:28.045Z,1013.1
2017-10-06T06:39:29.462Z,1013.2
2017-10-06T06:40:30.929Z,1013.2
2017-10-06T06:41:32.347Z,1013.2
2017-10-06T06:42:33.766Z,1013.2
2017-10-06T06:43:35.184Z,1013.2
2017-10-06T06:44:36.605Z,1013.2
2017-10-06T06:45:38.019Z,1013.2
2017-10-06T06:46:39.438Z,1013.2
2017-10-06T06:47:40.862Z,1013.2
2017-10-06T06:48:42.276Z,1013.3
2017-10-06T06:49:43.693Z,1013.2
2017-10-06T06:50:45.178Z,1013.3
2017-10-06T06:51:46.595Z,1013.2
2017-10-06T06:52:48.015Z,1013.2
2017-10-06T06:53:49.428Z,1013.2
2017-10-06T06:54:50.847Z,1013.3
2017-10-06T06:55:52.263Z,1013.3
2017-10-06T06:56:53.683Z,1013.3
2017-10-06T06:57:55.101Z,1013.3
2017-10-06T06:58:56.520Z,1013.3
2017-10-06T06:59:57.946Z,1013.3
2017-10-06T07:00:59.367Z,1013.3
2017-10-06T07:02:00.780Z,1013.3
2017-10-06T07:03:02.197Z,1013.3
2017-10-06T07:04:03.619Z,1013.3
2017-10-06T07:05:05.030Z,1013.3
2017-10-06T07:06:06.448Z,1013.3
2017-10-06T07:07:07.888Z,1013.3
2017-10-06T07:08:09.304Z,1013.3
2017-10-06T07:09:10.720Z,1013.3
2017-10-06T07:10:12.167Z,1013.4
2017-10-06T07:11:13.585Z,1013.4
2017-10-06T07:12:15.007Z,1013.4
2017-10-06T07:13:16.424Z,1013.3
2017-10-06T07:14:17.857Z,1013.4
2017-10-06T07:15:19.269Z,1013.4
2017-10-06T07:16:20.694Z,1013.4
2017-10-06T07:17:22.107Z,1013.4
2017-10-06T07:18:23.526Z,1013.4
2017-10-06T07:19:24.945Z,1013.5
2017-10-06T07:20:26.365Z,1013.5
2017-10-06T07:21:27.787Z,1013.4
2017-10-06T07:22:29.202Z,1013.5
2017-10-06T07:23:30.621Z,1013.5
2017-10-06T07:24:32.040Z,1013.5
2017-10-06T07:25:33.461Z,1013.5
2017-10-06T07:26:34.876Z,1013.6
2017-10-06T07:27:36.293Z,1013.6
2017-10-06T07:28:37.713Z,1013.6
2017-10-06T07:29:39.123Z,1013.6
2017-10-06T07:30:40.550Z,1013.6
2017-10-06T07:31:41.966Z,1013.6
2017-10-06T07:32:43.389Z,1013.6
2017-10-06T07:33:44.810Z,1013.7
2017-10-06T07:34:46.226Z,1013.7
2017-10-06T07:35:47.645Z,1013.6
2017-10-06T07:36:49.060Z,1013.7
2017-10-06T07:37:50.480Z,1013.6
2017-10-06T07:38:51.894Z,1013.6
2017-10-06T07:39:53.313Z,1013.7
2017-10-06T07:40:54.734Z,1013.8
2017-10-06T07:41:56.149Z,1013.7
2017-10-06T07:42:57.568Z,1013.7
2017-10-06T07:43:58.986Z,1013.7
2017-10-06T07:45:00.405Z,1013.7
2017-10-06T07:46:01.828Z,1013.7
2017-10-06T07:47:03.248Z,1013.7
2017-10-06T07:48:04.685Z,1013.7
2017-10-06T07:49:06.107Z,1013.8
2017-10-06T07:50:07.525Z,1013.8
2017-10-06T07:51:08.945Z,1013.8
2017-10-06T07:52:10.483Z,1013.8
2017-10-06T07:53:11.903Z,1013.8
2017-10-06T07:54:13.320Z,1013.8
2017-10-06T07:55:14.729Z,1013.8
2017-10-06T07:56:16.157Z,1013.8
2017-10-06T07:57:17.577Z,1013.8
2017-10-06T07:58:18.994Z,1013.8
2017-10-06T07:59:20.413Z,1013.8
2017-10-06T08:00:21.830Z,1013.8
2017-10-06T08:01:23.248Z,1013.8
2017-10-06T08:02:24.664Z,1013.8
2017-10-06T08:03:26.083Z,1013.8
2017-10-06T08:04:27.500Z,1013.8
2017-10-06T08:05:28.919Z,1013.8
2017-10-06T08:06:30.367Z,1013.8
2017-10-06T08:07:31.787Z,1013.8
2017-10-06T08:08:33.203Z,1013.9
2017-10-06T08:09:34.619Z,1013.9
2017-10-06T08:10:36.038Z,1013.9
2017-10-06T08:11:37.455Z,1013.9
2017-10-06T08:12:38.876Z,1013.9
2017-10-06T08:13:40.296Z,1013.9
2017-10-06T08:14:41.717Z,1013.9
2017-10-06T08:15:43.133Z,1013.8
2017-10-06T08:16:44.551Z,1013.9
2017-10-06T08:17:45.969Z,1013.9
2017-10-06T08:18:47.388Z,1013.9
2017-10-06T08:19:48.804Z,1014.0
2017-10-06T08:20:50.227Z,1013.9
2017-10-06T08:21:51.647Z,1014.0
2017-10-06T08:22:53.062Z,1014.0
2017-10-06T08:23:54.479Z,1014.0
2017-10-06T08:24:55.898Z,1014.1
2017-10-06T08:25:57.315Z,1014.0
2017-10-06T08:26:58.732Z,1014.1
2017-10-06T08:28:00.151Z,1014.0
2017-10-06T08:29:01.571Z,1014.0
2017-10-06T08:30:03.003Z,1014.0
2017-10-06T08:31:04.424Z,1014.0
2017-10-06T08:32:05.843Z,1014.0
2017-10-06T08:33:07.279Z,1014.1
2017-10-06T08:34:08.697Z,1014.1
2017-10-06T08:35:10.114Z,1014.1
2017-10-06T08:36:11.535Z,1014.1
2017-10-06T08:37:12.956Z,1014.1
2017-10-06T08:38:14.371Z,1014.1
2017-10-06T08:39:15.791Z,1014.1
2017-10-06T08:40:17.211Z,1014.2
2017-10-06T08:41:18.627Z,1014.1
2017-10-06T08:42:20.045Z,1014.1
2017-10-06T08:43:21.464Z,1014.2
2017-10-06T08:44:22.880Z,1014.2
2017-10-06T08:45:24.300Z,1014.2
2017-10-06T08:46:25.717Z,1014.2
2017-10-06T08:47:27.142Z,1014.2
2017-10-06T08:48:28.559Z,1014.2
2017-10-06T08:49:29.974Z,1014.2
2017-10-06T08:50:31.393Z,1014.3
2017-10-06T08:51:32.815Z,1014.3
2017-10-06T08:52:34.227Z,1014.3
2017-10-06T08:53:35.643Z,1014.3
2017-10-06T08:54:37.065Z,1014.3
2017-10-06T08:55:38.480Z,1014.3
2017-10-06T08:56:39.896Z,1014.4
2017-10-06T08:57:41.318Z,1014.4
2017-10-06T08:58:42.736Z,1014.4
2017-10-06T08:59:44.155Z,1014.3
2017-10-06T09:00:45.581Z,1014.4
2017-10-06T09:01:46.985Z,1014.4
2017-10-06T09:02:48.406Z,1014.4
2017-10-06T09:03:49.825Z,1014.4
2017-10-06T09:04:51.247Z,1014.4
2017-10-06T09:05:52.665Z,1014.4
2017-10-06T09:06:54.084Z,1014.4
2017-10-06T09:07:55.506Z,1014.4
2017-10-06T09:08:56.951Z,1014.5
2017-10-06T09:09:58.344Z,1014.5
2017-10-06T09:10:59.765Z,1014.5
2017-10-06T09:12:01.181Z,1014.5
2017-10-06T09:13:02.598Z,1014.4
2017-10-06T09:14:04.017Z,1014.4
2017-10-06T09:15:05.462Z,1014.5
2017-10-06T09:16:06.879Z,1014.4
2017-10-06T09:17:08.299Z,1014.5
2017-10-06T09:18:09.718Z,1014.4
2017-10-06T09:19:11.136Z,1014.4
2017-10-06T09:20:12.556Z,1014.4
2017-10-06T09:21:13.975Z,1014.4
2017-10-06T09:22:15.394Z,1014.3
2017-10-06T09:23:16.812Z,1014.4
2017-10-06T09:24:18.229Z,1014.4
2017-10-06T09:25:19.668Z,1014.5
2017-10-06T09:26:21.076Z,1014.5
2017-10-06T09:27:22.493Z,1014.5
2017-10-06T09:28:23.913Z,1014.5
2017-10-06T09:29:25.332Z,1014.5
2017-10-06T09:30:26.750Z,1014.5
2017-10-06T09:31:28.168Z,1014.6
2017-10-06T09:32:29.584Z,1014.7
2017-10-06T09:33:31.003Z,1014.6
2017-10-06T09:34:32.420Z,1014.7
2017-10-06T09:35:33.840Z,1014.7
2017-10-06T09:36:35.257Z,1014.8
2017-10-06T09:37:36.670Z,1014.8
2017-10-06T09:38:38.091Z,1014.8
2017-10-06T09:39:39.515Z,1014.9
2017-10-06T09:40:40.932Z,1014.9
2017-10-06T09:41:42.351Z,1014.8
2017-10-06T09:42:43.769Z,1014.9
2017-10-06T09:43:45.186Z,1014.9
2017-10-06T09:44:46.606Z,1014.9
2017-10-06T09:45:48.024Z,1014.9
2017-10-06T09:46:49.442Z,1015.0
2017-10-06T09:47:50.862Z,1015.0
2017-10-06T09:48:52.273Z,1014.9
2017-10-06T09:49:53.690Z,1014.9
2017-10-06T09:50:55.108Z,1015.0
2017-10-06T09:51:56.528Z,1014.9
2017-10-06T09:52:57.949Z,1015.0
2017-10-06T09:53:59.367Z,1015.0
2017-10-06T09:55:00.793Z,1015.0
2017-10-06T09:56:02.212Z,1015.1
2017-10-06T09:57:03.634Z,1015.0
2017-10-06T09:58:05.161Z,1015.0
2017-10-06T09:59:06.578Z,1015.0
2017-10-06T10:00:07.995Z,1015.0
2017-10-06T10:01:09.412Z,1015.0
2017-10-06T10:02:10.831Z,1015.0
2017-10-06T10:03:12.252Z,1015.1
2017-10-06T10:04:13.665Z,1015.1
2017-10-06T10:05:15.084Z,1015.1
2017-10-06T10:06:16.502Z,1015.1
2017-10-06T10:07:17.922Z,1015.2
2017-10-06T10:08:19.339Z,1015.2
2017-10-06T10:09:20.758Z,1015.3
2017-10-06T10:10:22.176Z,1015.2
2017-10-06T10:11:23.595Z,1015.3
2017-10-06T10:12:25.015Z,1015.3
2017-10-06T10:13:26.429Z,1015.3
2017-10-06T10:14:27.844Z,1015.2
2017-10-06T10:15:29.259Z,1015.1
2017-10-06T10:16:30.688Z,1015.1
2017-10-06T10:17:32.108Z,1015.2
2017-10-06T10:18:33.526Z,1015.2
2017-10-06T10:19:34.951Z,1015.2
2017-10-06T10:20:36.370Z,1015.2
2017-10-06T10:21:37.790Z,1015.2
2017-10-06T10:22:39.213Z,1015.2
2017-10-06T10:23:40.627Z,1015.2
2017-10-06T10:24:42.049Z,1015.3
2017-10-06T10:25:43.467Z,1015.2
2017-10-06T10:26:44.887Z,1015.2
2017-10-06T10:27:46.312Z,1015.3
2017-10-06T10:28:47.732Z,1015.3
2017-10-06T10:29:49.148Z,1015.3
2017-10-06T10:30:50.569Z,1015.3
2017-10-06T10:31:51.989Z,1015.3
2017-10-06T10:32:53.409Z,1015.3
2017-10-06T10:33:54.827Z,1015.3
2017-10-06T10:34:56.248Z,1015.3
2017-10-06T10:35:57.667Z,1015.4
2017-10-06T10:36:59.085Z,1015.3
2017-10-06T10:38:00.507Z,1015.4
2017-10-06T10:39:01.926Z,1015.3
2017-10-06T10:40:03.346Z,1015.3
2017-10-06T10:41:04.767Z,1015.4
2017-10-06T10:42:06.184Z,1015.4
2017-10-06T10:43:07.607Z,1015.3
2017-10-06T10:44:09.022Z,1015.3
2017-10-06T10:45:10.442Z,1015.3
2017-10-06T10:46:11.859Z,1015.3
2017-10-06T10:47:13.287Z,1015.3
2017-10-06T10:48:14.708Z,1015.4
2017-10-06T10:49:16.125Z,1015.4
2017-10-06T10:50:17.544Z,1015.4
2017-10-06T10:51:18.964Z,1015.4
2017-10-06T10:52:20.383Z,1015.4
2017-10-06T10:53:21.803Z,1015.4
2017-10-06T10:54:23.238Z,1015.4
2017-10-06T10:55:24.655Z,1015.4
2017-10-06T10:56:26.081Z,1015.4
2017-10-06T10:57:27.506Z,1015.4
2017-10-06T10:58:28.925Z,1015.4
2017-10-06T10:59:30.354Z,1015.4
2017-10-06T11:00:31.766Z,1015.3
2017-10-06T11:01:33.185Z,1015.4
2017-10-06T11:02:34.607Z,1015.4
2017-10-06T11:03:36.026Z,1015.4
2017-10-06T11:04:37.445Z,1015.4
2017-10-06T11:05:38.866Z,1015.4
2017-10-06T11:06:40.283Z,1015.4
2017-10-06T11:07:41.703Z,1015.4
2017-10-06T11:08:43.124Z,1015.3
2017-10-06T11:09:44.544Z,1015.4
2017-10-06T11:10:45.962Z,1015.3
2017-10-06T11:11:47.383Z,1015.4
2017-10-06T11:12:48.802Z,1015.3
2017-10-06T11:13:50.233Z,1015.4
2017-10-06T11:14:51.652Z,1015.3
2017-10-06T11:15:53.083Z,1015.4
2017-10-06T11:16:54.504Z,1015.5
2017-10-06T11:17:55.923Z,1015.5
2017-10-06T11:18:57.346Z,1015.5
2017-10-06T11:19:58.765Z,1015.4
2017-10-06T11:21:00.206Z,1015.4
2017-10-06T11:22:01.604Z,1015.4
2017-10-06T11:23:03.024Z,1015.4
2017-10-06T11:24:04.445Z,1015.4
2017-10-06T11:25:05.862Z,1015.4
2017-10-06T11:26:07.281Z,1015.5
2017-10-06T11:27:08.699Z,1015.5
2017-10-06T11:28:10.114Z,1015.5
2017-10-06T11:29:11.558Z,1015.6
2017-10-06T11:30:12.976Z,1015.6
2017-10-06T11:31:14.394Z,1015.6
2017-10-06T11:32:15.815Z,1015.6
2017-10-06T11:33:17.236Z,1015.6
2017-10-06T11:34:18.652Z,1015.6
2017-10-06T11:35:20.073Z,1015.6
2017-10-06T11:36:21.491Z,1015.6
2017-10-06T11:37:22.927Z,1015.5
2017-10-06T11:38:24.345Z,1015.7
2017-10-06T11:39:25.761Z,1015.7
2017-10-06T11:40:27.181Z,1015.7
2017-10-06T11:41:28.608Z,1015.7
2017-10-06T11:42:30.027Z,1015.7
2017-10-06T11:43:31.447Z,1015.7
2017-10-06T11:44:32.860Z,1015.7
2017-10-06T11:45:34.282Z,1015.7
2017-10-06T11:46:35.700Z,1015.7
2017-10-06T11:47:37.120Z,1015.7
2017-10-06T11:48:38.539Z,1015.6
2017-10-06T11:49:39.955Z,1015.7
2017-10-06T11:50:41.375Z,1015.7
2017-10-06T11:51:42.793Z,1015.7
2017-10-06T11:52:44.227Z,1015.8
2017-10-06T11:53:45.645Z,1015.7
2017-10-06T11:54:47.060Z,1015.8
2017-10-06T11:55:48.481Z,1015.7
2017-10-06T11:56:49.902Z,1015.7
2017-10-06T11:57:51.318Z,1015.7
2017-10-06T11:58:52.738Z,1015.7
2017-10-06T11:59:54.158Z,1015.7
2017-10-06T12:00:55.580Z,1015.8
2017-10-06T12:01:56.998Z,1015.8
2017-10-06T12:02:58.418Z,1015.8
2017-10-06T12:03:59.862Z,1015.9
2017-10-06T12:05:01.258Z,1015.9
2017-10-06T12:06:02.676Z,1015.9
2017-10-06T12:07:04.094Z,1015.9
2017-10-06T12:08:05.537Z,1015.8
2017-10-06T12:09:06.955Z,1015.9
2017-10-06T12:10:08.372Z,1016.0
2017-10-06T12:11:09.794Z,1015.9
2017-10-06T12:12:11.207Z,1016.0
2017-10-06T12:13:12.624Z,1016.0
2017-10-06T12:14:14.047Z,1016.0
2017-10-06T12:15:15.466Z,1016.0
2017-10-06T12:16:16.885Z,1015.9
2017-10-06T12:17:18.303Z,1016.0
2017-10-06T12:18:19.722Z,1015.9
2017-10-06T12:19:21.141Z,1015.9
2017-10-06T12:20:22.572Z,1015.9
2017-10-06T12:21:23.978Z,1015.9
2017-10-06T12:22:25.396Z,1015.9
2017-10-06T12:23:26.811Z,1016.0
2017-10-06T12:24:28.231Z,1015.9
2017-10-06T12:25:29.649Z,1015.9
2017-10-06T12:26:31.067Z,1015.9
2017-10-06T12:27:32.486Z,1015.9
2017-10-06T12:28:33.910Z,1015.9
2017-10-06T12:29:35.327Z,1015.9
2017-10-06T12:30:36.744Z,1015.9
2017-10-06T12:31:38.162Z,1015.9
2017-10-06T12:32:39.585Z,1015.9
2017-10-06T12:33:40.999Z,1015.8
2017-10-06T12:34:42.416Z,1015.7
2017-10-06T12:35:43.832Z,1015.8
2017-10-06T12:36:45.253Z,1015.8
2017-10-06T12:37:46.674Z,1015.8
2017-10-06T12:38:48.095Z,1015.7
2017-10-06T12:39:49.511Z,1015.7
2017-10-06T12:40:50.931Z,1015.7
2017-10-06T12:41:52.349Z,1015.7
2017-10-06T12:42:53.770Z,1015.7
2017-10-06T12:43:55.201Z,1015.7
2017-10-06T12:44:56.605Z,1015.8
2017-10-06T12:45:58.030Z,1015.8
2017-10-06T12:46:59.451Z,1015.9
2017-10-06T12:48:00.871Z,1015.9